Time;durP1;ratioP1;P1;durP2;ratioP2;P2;SDS_P1;SDS_P2;PMS_P1;PMS_P2;Temp;Humidity;BMP_temperature;BMP_pressure;BME280_temperature;BME280_humidity;BME280_pressure;Samples;Min_cycle;Max_cycle;Signal;HPM_P1;HPM_P2
2022/05/04 00:03:54;;;;;;;14.60;6.63;;;10.60;99.90;;;;;;2613968;54;20163;-76
2022/05/04 00:09:42;;;;;;;10.20;7.23;;;10.60;99.90;;;;;;2613878;54;20476;-77
2022/05/04 00:15:30;;;;;;;12.87;6.90;;;10.50;99.90;;;;;;2615354;47;20162;-75
2022/05/04 00:21:17;;;;;;;9.33;6.67;;;10.30;99.90;;;;;;2614530;47;20677;-76
2022/05/04 00:27:05;;;;;;;8.67;7.13;;;10.30;99.90;;;;;;2615650;54;20155;-75
2022/05/04 00:32:54;;;;;;;11.97;7.00;;;10.20;99.90;;;;;;2613644;54;20468;-76
2022/05/04 00:38:41;;;;;;;7.13;6.10;;;10.10;99.90;;;;;;2613760;47;20945;-75
2022/05/04 00:49:01;;;;;;;8.47;5.53;;;10.00;99.90;;;;;;2614396;54;20507;-75
2022/05/04 00:55:09;;;;;;;6.40;5.80;;;10.00;99.90;;;;;;2611885;54;20406;-74
2022/05/04 01:01:17;;;;;;;8.30;6.40;;;9.90;99.90;;;;;;2612895;46;20421;-74
2022/05/04 01:07:23;;;;;;;7.90;6.63;;;9.90;99.90;;;;;;2611641;54;20407;-75
2022/05/04 01:17:11;;;;;;;7.67;6.40;;;9.50;99.90;;;;;;2612467;47;20390;-74
2022/05/04 01:22:58;;;;;;;7.47;6.47;;;9.50;99.90;;;;;;2612615;47;20254;-74
2022/05/04 01:28:46;;;;;;;8.60;7.03;;;9.40;99.90;;;;;;2611457;54;20162;-74
2022/05/04 01:34:34;;;;;;;11.33;7.30;;;9.30;99.90;;;;;;2613209;54;20430;-74
2022/05/04 01:40:21;;;;;;;12.50;7.47;;;9.20;99.90;;;;;;2611925;54;20176;-76
2022/05/04 01:49:50;;;;;;;11.80;7.23;;;9.00;99.90;;;;;;2614948;54;21125;-74
2022/05/04 01:55:57;;;;;;;8.73;6.70;;;9.00;99.90;;;;;;2616055;54;20500;-74
2022/05/04 02:02:07;;;;;;;10.90;7.00;;;9.00;99.90;;;;;;2616111;54;20382;-74
2022/05/04 02:08:14;;;;;;;7.03;6.43;;;8.80;99.90;;;;;;2615452;54;20366;-75
2022/05/04 02:14:21;;;;;;;11.67;6.90;;;8.80;99.90;;;;;;2616102;54;20148;-75
2022/05/04 02:20:27;;;;;;;8.60;7.23;;;8.80;99.90;;;;;;2616512;54;20184;-75
2022/05/04 02:26:35;;;;;;;12.40;7.93;;;8.40;99.90;;;;;;2616116;54;20149;-75
2022/05/04 02:32:41;;;;;;;9.43;6.87;;;8.30;99.90;;;;;;2615248;54;20191;-82
2022/05/04 02:38:48;;;;;;;14.53;8.40;;;8.40;99.90;;;;;;2616200;54;20157;-80
2022/05/04 02:44:55;;;;;;;10.53;7.93;;;8.30;99.90;;;;;;2614289;54;20157;-74
2022/05/04 02:51:02;;;;;;;16.47;7.30;;;8.20;99.90;;;;;;2615550;54;20768;-77
2022/05/04 02:57:09;;;;;;;14.70;8.53;;;;;;;;;;2615107;54;20393;-76
2022/05/04 03:03:16;;;;;;;13.60;8.20;;;8.20;99.90;;;;;;2614907;54;20370;-77
2022/05/04 03:09:23;;;;;;;14.60;8.17;;;8.10;99.90;;;;;;2615992;39;20550;-76
2022/05/04 03:15:30;;;;;;;15.93;9.00;;;8.20;99.90;;;;;;2614555;54;20946;-74
2022/05/04 03:21:36;;;;;;;16.63;9.90;;;8.20;99.90;;;;;;2614330;54;20183;-73
2022/05/04 03:27:43;;;;;;;11.47;8.70;;;8.10;99.90;;;;;;2614395;54;20208;-75
2022/05/04 03:33:50;;;;;;;13.53;8.20;;;8.10;99.90;;;;;;2613730;54;20176;-74
2022/05/04 03:39:57;;;;;;;14.80;7.87;;;8.10;99.90;;;;;;2614540;54;20505;-74
2022/05/04 03:49:45;;;;;;;18.13;8.70;;;8.10;99.90;;;;;;2614973;54;20978;-74
2022/05/04 03:55:53;;;;;;;13.40;8.47;;;8.10;99.90;;;;;;2615208;54;20204;-74
2022/05/04 04:02:00;;;;;;;8.70;7.27;;;8.20;99.90;;;;;;2615024;54;20378;-73
2022/05/04 04:08:06;;;;;;;12.50;8.03;;;8.00;99.90;;;;;;2613636;54;20418;-74
2022/05/04 04:14:13;;;;;;;11.60;10.10;;;8.00;99.90;;;;;;2615243;54;20159;-75
2022/05/04 04:26:46;;;;;;;12.70;7.90;;;8.00;99.90;;;;;;2613799;54;20418;-73
2022/05/04 04:32:53;;;;;;;20.00;9.90;;;8.10;99.90;;;;;;2614476;54;20432;-75
2022/05/04 04:39:00;;;;;;;16.00;9.00;;;8.20;99.90;;;;;;2613890;54;20239;-75
2022/05/04 04:49:27;;;;;;;12.17;8.67;;;8.20;99.90;;;;;;2614120;39;20843;-76
2022/05/04 04:55:34;;;;;;;21.13;8.97;;;8.20;99.90;;;;;;2613994;46;20424;-75
2022/05/04 05:01:41;;;;;;;12.80;8.17;;;8.30;99.90;;;;;;2614122;54;20405;-78
2022/05/04 05:07:47;;;;;;;10.57;8.43;;;8.50;99.90;;;;;;2614526;39;20593;-75
2022/05/04 05:20:20;;;;;;;10.00;7.97;;;8.90;99.90;;;;;;2614433;54;20397;-74
2022/05/04 05:26:27;;;;;;;13.27;9.03;;;9.20;99.90;;;;;;2615367;39;20768;-75
2022/05/04 05:32:34;;;;;;;16.03;8.97;;;9.40;99.90;;;;;;2613395;54;20319;-75
2022/05/04 05:38:41;;;;;;;16.90;7.77;;;9.60;99.90;;;;;;2612028;54;20416;-75
2022/05/04 05:44:47;;;;;;;11.13;8.10;;;9.90;99.90;;;;;;2612582;54;20338;-77
2022/05/04 05:54:15;;;;;;;12.93;8.40;;;10.70;99.90;;;;;;2611279;54;20427;-75
2022/05/04 06:03:58;;;;;;;14.63;8.00;;;11.40;95.00;;;;;;2611423;54;20511;-76
2022/05/04 06:10:05;;;;;;;14.30;9.77;;;11.50;94.10;;;;;;2611830;54;20176;-76
2022/05/04 06:16:12;;;;;;;16.30;10.03;;;12.20;87.40;;;;;;2613109;54;20461;-76
2022/05/04 06:22:36;;;;;;;15.77;10.00;;;12.50;73.60;;;;;;2612416;54;20526;-75
2022/05/04 06:28:42;;;;;;;11.23;9.73;;;12.70;69.40;;;;;;2615619;39;20582;-76
2022/05/04 06:34:49;;;;;;;12.23;8.90;;;13.20;66.20;;;;;;2632478;36;20254;-76
2022/05/04 06:41:00;;;;;;;19.63;8.70;;;13.70;56.70;;;;;;2615110;54;20484;-79
2022/05/04 06:54:00;;;;;;;13.63;8.80;;;14.40;47.70;;;;;;2613872;54;20469;-75
2022/05/04 06:56:26;;;;;;;11.70;7.83;;;14.60;44.90;;;;;;2614590;47;20538;-79
2022/05/04 07:13:06;;;;;;;15.77;9.70;;;15.30;40.10;;;;;;2612071;54;20422;-76
2022/05/04 07:22:35;;;;;;;15.70;10.33;;;15.20;37.10;;;;;;2612187;47;20570;-80
2022/05/04 07:28:22;;;;;;;13.70;10.03;;;16.10;33.00;;;;;;2613504;54;20450;-76
2022/05/04 07:34:14;;;;;;;11.03;10.00;;;16.40;28.40;;;;;;2613860;54;20439;-77
2022/05/04 07:50:11;;;;;;;13.70;10.80;;;16.80;22.90;;;;;;2615277;54;20443;-77
2022/05/04 07:56:19;;;;;;;16.97;11.10;;;16.90;24.40;;;;;;2614122;54;20424;-77
2022/05/04 08:09:44;;;;;;;;;;;;;;;;;;;;;
2022/05/04 08:39:05;;;;;;;19.13;13.07;;;18.80;2.90;;;;;;2611980;54;20427;-76
2022/05/04 08:45:14;;;;;;;15.53;13.93;;;18.70;5.20;;;;;;2614288;54;20549;-79
2022/05/04 08:56:03;;;;;;;;;;;;;;;;;;;;;
2022/05/04 10:39:13;;;;;;;19.67;17.23;;;19.80;1.00;;;;;;2614070;46;20415;-76
2022/05/04 10:49:39;;;;;;;21.93;19.63;;;20.70;1.00;;;;;;2613171;54;21510;-81
2022/05/04 11:30:36;;;;;;;19.50;17.60;;;19.90;1.00;;;;;;2614354;47;20452;-77
2022/05/04 12:06:45;;;;;;;19.67;17.67;;;23.00;1.00;;;;;;2613850;47;20436;-78
2022/05/04 12:17:18;;;;;;;18.47;16.70;;;21.50;1.00;;;;;;2614376;54;20422;-76
2022/05/04 13:13:12;;;;;;;14.33;10.80;;;21.60;1.00;;;;;;2613365;54;20530;-78
2022/05/04 14:02:55;;;;;;;8.20;7.33;;;22.50;1.00;;;;;;2611377;47;20441;-77
2022/05/04 14:20:56;;;;;;;13.80;6.60;;;22.20;1.00;;;;;;2611067;47;20980;-77
2022/05/04 14:44:12;;;;;;;7.23;6.73;;;22.20;1.00;;;;;;2613426;54;20515;-77
2022/05/04 14:50:36;;;;;;;9.63;7.30;;;22.00;1.00;;;;;;2614388;54;20445;-77
2022/05/04 14:57:05;;;;;;;8.87;7.00;;;22.00;1.00;;;;;;2612089;54;20449;-78
2022/05/04 15:06:58;;;;;;;6.30;5.70;;;21.50;1.00;;;;;;2611533;46;20429;-75
2022/05/04 15:28:18;;;;;;;8.20;6.07;;;21.40;1.00;;;;;;2615212;39;21085;-80
2022/05/04 16:27:38;;;;;;;5.87;5.27;;;20.80;1.00;;;;;;2614129;54;20442;-79
2022/05/04 16:33:45;;;;;;;6.77;5.30;;;20.80;1.00;;;;;;2613881;54;20164;-75
2022/05/04 16:39:51;;;;;;;7.27;5.30;;;21.10;1.00;;;;;;2613827;54;20980;-74
2022/05/04 16:46:01;;;;;;;9.00;5.33;;;21.10;1.00;;;;;;2615703;54;20522;-75
2022/05/04 16:52:08;;;;;;;8.40;6.63;;;21.30;1.00;;;;;;2614795;54;20423;-76
2022/05/04 16:58:15;;;;;;;5.70;5.20;;;20.80;1.00;;;;;;2612228;54;20407;-75
2022/05/04 17:04:22;;;;;;;6.73;6.03;;;20.90;1.00;;;;;;2612364;54;20198;-76
2022/05/04 17:10:32;;;;;;;7.00;5.17;;;20.10;1.00;;;;;;2614660;39;20809;-76
2022/05/04 17:16:39;;;;;;;9.27;4.97;;;19.40;1.00;;;;;;2614094;54;20516;-74
2022/05/04 17:22:46;;;;;;;7.23;5.30;;;18.60;1.00;;;;;;2613238;54;20392;-77
2022/05/04 17:28:53;;;;;;;6.90;4.87;;;18.30;1.00;;;;;;2613413;54;20498;-76
2022/05/04 17:41:27;;;;;;;8.23;5.10;;;17.90;1.00;;;;;;2615039;39;20656;-76
2022/05/04 17:47:34;;;;;;;5.37;4.90;;;17.80;1.00;;;;;;2614180;54;20472;-75
2022/05/04 17:53:42;;;;;;;6.07;5.37;;;17.60;1.00;;;;;;2613571;54;20388;-76
2022/05/04 17:59:49;;;;;;;5.33;4.83;;;17.30;1.00;;;;;;2613455;54;20983;-76
2022/05/04 18:05:56;;;;;;;6.00;5.13;;;17.30;1.00;;;;;;2613421;54;20419;-76
2022/05/04 18:12:03;;;;;;;8.83;4.63;;;17.10;1.00;;;;;;2614284;54;20414;-75
2022/05/04 18:18:10;;;;;;;10.00;5.30;;;16.90;1.00;;;;;;2614990;54;20500;-78
2022/05/04 18:21:13;;;;;;;9.43;5.50;;;16.80;1.00;;;;;;2613778;47;20429;-75
2022/05/04 18:27:02;;;;;;;7.83;4.80;;;16.60;1.00;;;;;;2614423;47;20408;-78
2022/05/04 18:32:51;;;;;;;8.37;5.27;;;16.50;1.00;;;;;;2616647;54;20423;-77
2022/05/04 18:38:39;;;;;;;5.93;4.70;;;16.30;1.00;;;;;;2616992;39;20777;-79
2022/05/04 18:44:27;;;;;;;5.30;4.77;;;16.20;1.00;;;;;;2615400;54;20443;-77
2022/05/04 18:50:17;;;;;;;4.80;4.30;;;16.00;1.00;;;;;;2615236;54;20440;-75
2022/05/04 18:56:07;;;;;;;7.07;4.97;;;15.80;1.00;;;;;;2614825;54;20443;-76
2022/05/04 19:01:55;;;;;;;8.10;5.27;;;15.70;1.00;;;;;;2614745;54;20431;-75
2022/05/04 19:07:44;;;;;;;105.63;10.90;;;15.50;1.00;;;;;;2615606;47;20452;-77
2022/05/04 19:13:33;;;;;;;7.50;5.67;;;15.30;1.00;;;;;;2615170;54;20534;-78
2022/05/04 19:19:48;;;;;;;11.03;6.03;;;15.20;1.00;;;;;;2632914;36;20611;-76
2022/05/04 19:25:39;;;;;;;10.00;5.83;;;15.20;1.00;;;;;;2614100;54;20961;-77
2022/05/04 19:31:33;;;;;;;8.87;5.00;;;15.30;1.00;;;;;;2613548;47;20453;-78
2022/05/04 19:37:22;;;;;;;10.30;8.80;;;15.10;1.00;;;;;;2613821;47;20972;-78
2022/05/04 19:43:09;;;;;;;9.60;8.30;;;15.20;1.00;;;;;;2612377;39;20793;-79
2022/05/04 20:00:07;;;;;;;9.63;6.00;;;15.20;1.00;;;;;;2613551;54;21011;-76
2022/05/04 20:06:14;;;;;;;8.07;5.40;;;15.00;1.00;;;;;;2613290;54;20414;-78
2022/05/04 20:12:21;;;;;;;9.63;5.77;;;15.20;1.00;;;;;;2614187;54;20445;-78
2022/05/04 20:22:09;;;;;;;6.40;5.50;;;15.10;1.00;;;;;;2614515;54;20457;-76
2022/05/04 20:28:17;;;;;;;7.90;6.73;;;15.00;1.00;;;;;;2615929;54;20406;-76
2022/05/04 20:34:24;;;;;;;6.17;5.57;;;14.90;1.00;;;;;;2616325;54;20388;-76
2022/05/04 20:40:31;;;;;;;15.10;9.70;;;14.80;1.00;;;;;;2614396;54;20411;-81
2022/05/04 20:46:41;;;;;;;12.90;9.03;;;14.70;1.00;;;;;;2615047;54;20491;-76
2022/05/04 20:52:48;;;;;;;11.53;7.87;;;14.70;1.00;;;;;;2614932;54;20523;-77
2022/05/04 20:58:55;;;;;;;8.77;6.37;;;14.40;1.00;;;;;;2614030;54;20422;-78
2022/05/04 21:05:05;;;;;;;12.10;6.20;;;14.20;2.40;;;;;;2615227;54;20407;-76
2022/05/04 21:11:12;;;;;;;6.70;4.80;;;14.10;3.00;;;;;;2613477;54;20395;-78
2022/05/04 21:28:18;;;;;;;9.20;4.97;;;13.40;4.40;;;;;;2613760;54;20402;-78
2022/05/04 21:34:25;;;;;;;7.17;6.07;;;13.10;6.90;;;;;;2613369;54;20442;-77
2022/05/04 21:40:32;;;;;;;7.40;6.70;;;13.00;8.80;;;;;;2613274;54;20497;-75
2022/05/04 21:50:05;;;;;;;13.53;7.07;;;12.90;12.40;;;;;;2613044;54;20426;-73
2022/05/04 21:56:12;;;;;;;6.20;5.60;;;12.70;15.80;;;;;;2613623;54;20426;-75
2022/05/04 22:01:59;;;;;;;6.57;5.97;;;12.30;22.70;;;;;;2613976;54;20273;-74
2022/05/04 22:07:47;;;;;;;6.30;5.00;;;12.30;23.60;;;;;;2614072;39;20491;-74
2022/05/04 22:45:39;;;;;;;5.27;4.70;;;11.70;38.60;;;;;;2614645;54;20423;-75
2022/05/04 22:51:46;;;;;;;6.40;4.93;;;11.50;42.10;;;;;;2614494;54;20153;-76
2022/05/04 22:57:52;;;;;;;9.90;6.00;;;11.40;48.10;;;;;;2613768;54;20425;-75
2022/05/04 23:07:25;;;;;;;12.63;6.57;;;11.50;50.40;;;;;;2613276;54;20974;-76
2022/05/04 23:13:13;;;;;;;7.30;6.57;;;11.30;51.80;;;;;;2614767;54;20460;-76
2022/05/04 23:22:41;;;;;;;10.00;5.87;;;11.40;51.50;;;;;;2614408;39;20532;-75
2022/05/04 23:28:48;;;;;;;13.50;6.33;;;11.50;52.60;;;;;;2614542;54;20185;-76
2022/05/04 23:38:17;;;;;;;9.13;6.70;;;11.70;48.00;;;;;;2613197;54;20447;-75
2022/05/04 23:44:05;;;;;;;10.90;5.60;;;12.00;42.70;;;;;;2615813;54;20460;-76
2022/05/04 23:49:53;;;;;;;11.93;7.30;;;12.30;41.20;;;;;;2615724;54;20399;-76
2022/05/04 23:55:41;;;;;;;7.67;6.90;;;12.20;40.50;;;;;;2615305;54;20179;-76
